NCAR-RAP Real-Time Weather Data

Output produced by METARs form (12 August 2020  18:42 UTC)
found at http://weather.rap.ucar.edu/surface/
 
KCPR 121753Z 21009KT 10SM CLR 28/02 A3002 RMK AO2 PK WND 21027/1655 SLP086 T02780022 10283 20144 55002
KCPR 121653Z 22018G26KT 10SM CLR 27/01 A3002 RMK AO2 PK WND 21027/1611 SLP089 T02720011
KCPR 121553Z 23018KT 10SM CLR 26/02 A3002 RMK AO2 SLP087 T02610017
KCPR 121453Z 22011KT 10SM CLR 25/02 A3002 RMK AO2 SLP091 T02500022 50006
KCPR 121426Z 23008KT 10SM CLR 24/02 A3003 RMK AO2 T02390017
KCPR 121353Z 24008KT 10SM CLR 19/02 A3003 RMK AO2 SLP094 T01890017
KCPR 121253Z 24009KT 10SM CLR 17/01 A3001 RMK AO2 SLP092 T01670011
KCPR 121153Z AUTO 24008KT 10SM CLR 16/01 A3000 RMK AO2 SLP087 T01560011 10222 20150 52004 TSNO
KCPR 121053Z AUTO 24011KT 10SM CLR 17/01 A3000 RMK AO2 SLP082 T01670006 TSNO
KCPR 120953Z AUTO 25008KT 10SM CLR 17/01 A2999 RMK AO2 SLP080 T01670006 TSNO
KCPR 120853Z AUTO 23009KT 10SM CLR 18/01 A2999 RMK AO2 SLP079 T01830011 53001
KCPR 120753Z AUTO 26006KT 10SM CLR 22/01 A2998 RMK AO2 SLP072 T02170006
KCPR 120653Z AUTO 21006KT 10SM CLR 22/01 A2998 RMK AO2 SLP066 T02220011 403330111
KCPR 120553Z AUTO 20005KT 10SM CLR 21/01 A2998 RMK AO2 SLP070 T02060006 10311 20189 51009
KCPR 120453Z AUTO 22005KT 10SM CLR 19/00 A2997 RMK AO2 SLP071 T01940000
KCPR 120353Z AUTO 25013KT 10SM CLR 24/00 A2997 RMK AO2 SLP066 T02390000
KCPR 120253Z AUTO 00000KT 10SM CLR 22/00 A2995 RMK AO2 SLP070 T02220000 52002
KCPR 120153Z AUTO 23013KT 10SM CLR 27/00 A2995 RMK AO2 SLP068 T02720000
KCPR 120053Z AUTO 23008KT 10SM CLR 29/00 A2995 RMK AO2 WSHFT 2359 SLP071 T02890000
KCPR 120019Z AUTO 32013KT 10SM CLR 31/00 A2995 RMK AO2 WSHFT 2359 T03110000
KCPR 112353Z AUTO 26010G25KT 10SM FEW110 29/M01 A2995 RMK AO2 PK WND 30038/2313 RAB14E25 SLP071 P0000 60000 T02941006 10333 20233 55010
KCPR 112253Z AUTO 27012G16KT 10SM CLR 31/M01 A2994 RMK AO2 SLP068 T03111011
KCPR 112153Z 20008KT 10SM FEW090 31/00 A2997 RMK AO2 PK WND 32042/2125 RAB14E36 SLP077 P0000 T03060000
KCPR 112118Z VRB05G41KT 10SM -RA SQ FEW065 SCT090 SCT110 28/00 A3000 RMK AO2 PK WND 28041/2111 RAB14 P0000 T02830000
KCPR 112053Z VRB03KT 10SM FEW110 29/M01 A2998 RMK AO2 PK WND 29051/2007 WSHFT 1940 RAE1959B08E29 SLP083 P0000 60000 T02891006 56004
KCPR 112000Z VRB03G25KT 10SM BKN110 29/00 A2999 RMK AO2 WSHFT 1940 RAE1959 P0000 T02890000
KCPR 111953Z 04011G53KT 10SM -RA FEW095 BKN110 28/00 A2999 RMK AO2 PK WND 30053/1945 WSHFT 1937 LTG DSNT W RAB41 SLP088 P0000 T02780000
KCPR 111853Z 23013G32KT 10SM FEW120 33/01 A2998 RMK AO2 PK WND 22032/1849 SLP071 T03280011
KCPR 111753Z 22017G30KT 10SM CLR 32/03 A3000 RMK AO2 PK WND 23030/1749 SLP080 T03170028 10317 20111 58010
KCPR 111653Z 22013G18KT 10SM CLR 29/02 A3002 RMK AO2 SLP085 T02940022
KCPR 111553Z 22010KT 10SM CLR 28/03 A3002 RMK AO2 SLP083 T02780028
KCPR 111453Z 15004KT 10SM CLR 23/07 A3003 RMK AO2 SLP088 T02330067 58001
KCPR 111353Z 23005KT 10SM CLR 18/05 A3004 RMK AO2 SLP100 T01780050
KCPR 111253Z 25005KT 10SM CLR 15/04 A3004 RMK AO2 SLP101 T01500039
KCPR 111153Z AUTO 26010KT 10SM CLR 14/03 A3003 RMK AO2 SLP098 T01390033 10183 20122 51001
KCPR 111053Z AUTO 25005KT 10SM CLR 13/04 A3003 RMK AO2 SLP094 T01330039
KCPR 110953Z AUTO 25007KT 10SM CLR 13/04 A3003 RMK AO2 SLP098 T01280044
KCPR 110853Z AUTO 25004KT 10SM CLR 14/04 A3003 RMK AO2 SLP097 T01390044 50006
KCPR 110753Z AUTO 25004KT 10SM CLR 14/04 A3003 RMK AO2 SLP097 T01390044
KCPR 110653Z AUTO 28006KT 10SM CLR 17/03 A3002 RMK AO2 SLP091 T01670033 403390083
KCPR 110553Z AUTO 33007KT 10SM CLR 17/02 A3001 RMK AO2 SLP091 60000 T01720022 10322 20172 58005
KCPR 110453Z AUTO 33003KT 10SM CLR 21/03 A3002 RMK AO2 SLP095 T02110033
KCPR 110404Z AUTO 20017G23KT 10SM CLR 26/02 A3002 RMK AO2 T02560022
KCPR 110353Z AUTO 20013KT 10SM VCTS FEW110 26/03 A3003 RMK AO2 LTG DSNT E TSB29E45 SLP092 T02560028
KCPR 110351Z AUTO 19015G25KT 10SM VCTS FEW110 26/03 A3003 RMK AO2 LTG DSNT E TSB29E45
KCPR 110335Z AUTO 19006KT 10SM TS FEW110 26/M01 A3003 RMK AO2 LTG DSNT SE TSB29 T02611006
KCPR 110253Z AUTO 23015G41KT 10SM FEW100 28/M01 A3001 RMK AO2 PK WND 22041/0241 WSHFT 0234 LTG DSNT SW RAB43E53 SLP089 P0000 60000 T02781011 53006
KCPR 110153Z AUTO 32004KT 10SM CLR 27/M01 A2999 RMK AO2 SLP086 T02671011
KCPR 110053Z AUTO 28010G18KT 10SM CLR 29/M02 A3000 RMK AO2 SLP094 T02941022
KCPR 102353Z AUTO 34010KT 10SM CLR 32/M04 A2999 RMK AO2 SLP090 T03171044 10339 20261 56015
KCPR 102253Z AUTO 31015G24KT 250V020 10SM CLR 34/M03 A3000 RMK AO2 SLP088 T03391033
KCPR 102153Z AUTO 10SM CLR 33/M02 A3002 RMK AO2 SLP089 T03281017
KCPR 102053Z 21006KT 10SM CLR 32/M01 A3004 RMK AO2 SLP098 T03171006 56026
KCPR 101953Z 20005KT 10SM CLR 31/03 A3007 RMK AO2 SLP113 T03110028
KCPR 101853Z VRB04KT 10SM CLR 29/05 A3010 RMK AO2 SLP124 T02940050